Aviation Digital Data Service (ADDS)

Output produced by METARs form (1824 UTC 24 June 2018)
found at http://aviationweather.gov/adds/metars/
 
KMIV 241731Z 2418/2518 25006G12KT P6SM SCT040 BKN150 
     TEMPO 2423/2503 5SM -TSRA BKN040CB 
     FM250300 28005KT P6SM FEW050 SCT120 
     FM250700 30008KT P6SM SCT250 
     FM251300 32011KT P6SM FEW250